createdAt,value
2022-10-05T00:04:27.724Z,1003.07
2022-10-05T00:09:27.644Z,1002.99
2022-10-05T00:14:27.591Z,1003.01
2022-10-05T00:19:27.513Z,1003.11
2022-10-05T00:24:27.456Z,1003.05
2022-10-05T00:29:27.383Z,1003.11
2022-10-05T00:34:27.324Z,1003.08
2022-10-05T00:39:27.252Z,1002.98
2022-10-05T00:44:27.195Z,1002.91
2022-10-05T00:49:27.122Z,1002.81
2022-10-05T00:54:27.066Z,1002.86
2022-10-05T00:59:26.990Z,1002.84
2022-10-05T01:04:26.932Z,1002.84
2022-10-05T01:09:26.860Z,1002.96
2022-10-05T01:14:26.799Z,1003.16
2022-10-05T01:19:26.727Z,1003.12
2022-10-05T01:24:26.666Z,1003.18
2022-10-05T01:29:26.599Z,1003.31
2022-10-05T01:34:26.538Z,1003.08
2022-10-05T01:39:26.471Z,1002.98
2022-10-05T01:44:26.409Z,1003.07
2022-10-05T01:49:26.335Z,1003.08
2022-10-05T01:54:26.278Z,1003.11
2022-10-05T01:59:26.203Z,1003.03
2022-10-05T02:04:59.803Z,1003.05
2022-10-05T02:09:27.103Z,1002.99
2022-10-05T02:14:26.015Z,1003.03
2022-10-05T02:19:25.942Z,1003.00
2022-10-05T02:24:25.885Z,1003.03
2022-10-05T02:29:25.816Z,1002.99
2022-10-05T02:34:25.756Z,1003.05
2022-10-05T02:39:25.679Z,1003.04
2022-10-05T02:44:25.621Z,1002.99
2022-10-05T02:49:25.547Z,1002.94
2022-10-05T02:54:25.489Z,1002.84
2022-10-05T02:59:25.416Z,1002.74
2022-10-05T03:04:25.349Z,1002.70
2022-10-05T03:09:25.293Z,1002.64
2022-10-05T03:14:25.218Z,1002.59
2022-10-05T03:19:25.158Z,1002.65
2022-10-05T03:24:25.085Z,1002.67
2022-10-05T03:29:25.027Z,1002.65
2022-10-05T03:34:24.953Z,1002.60
2022-10-05T03:39:24.892Z,1002.64
2022-10-05T03:44:24.820Z,1002.58
2022-10-05T03:49:24.760Z,1002.63
2022-10-05T03:54:24.686Z,1002.66
2022-10-05T03:59:27.751Z,1002.69
2022-10-05T04:04:24.574Z,1002.60
2022-10-05T04:09:24.501Z,1002.50
2022-10-05T04:14:24.441Z,1002.45
2022-10-05T04:19:24.371Z,1002.48
2022-10-05T04:24:24.311Z,1002.34
2022-10-05T04:29:24.235Z,1002.27
2022-10-05T04:34:24.180Z,1002.26
2022-10-05T04:39:24.104Z,1002.34
2022-10-05T04:44:24.045Z,1002.30
2022-10-05T04:49:23.972Z,1002.37
2022-10-05T04:54:23.914Z,1002.32
2022-10-05T04:59:23.840Z,1002.34
2022-10-05T05:04:23.781Z,1002.37
2022-10-05T05:09:23.707Z,1002.43
2022-10-05T05:14:23.650Z,1002.56
2022-10-05T05:19:23.576Z,1002.56
2022-10-05T05:24:23.524Z,1002.57
2022-10-05T05:29:23.443Z,1002.63
2022-10-05T05:34:23.386Z,1002.60
2022-10-05T05:39:23.312Z,1002.54
2022-10-05T05:44:23.258Z,1002.54
2022-10-05T05:49:23.183Z,1002.59
2022-10-05T05:54:23.128Z,1002.42
2022-10-05T05:59:23.061Z,1002.36
2022-10-05T06:04:22.994Z,1002.31
2022-10-05T06:09:22.921Z,1002.19
2022-10-05T06:14:22.863Z,1002.11
2022-10-05T06:19:22.792Z,1002.18
2022-10-05T06:24:22.732Z,1002.19
2022-10-05T06:29:22.657Z,1002.19
2022-10-05T06:34:22.600Z,1002.10
2022-10-05T06:39:22.526Z,1002.07
2022-10-05T06:44:22.473Z,1002.17
2022-10-05T06:49:22.395Z,1002.15
2022-10-05T06:54:22.335Z,1002.21
2022-10-05T06:59:22.264Z,1002.23
2022-10-05T07:04:22.209Z,1002.22
2022-10-05T07:09:22.137Z,1002.15
2022-10-05T07:14:22.079Z,1002.27
2022-10-05T07:19:22.002Z,1002.21
2022-10-05T07:24:21.945Z,1002.17
2022-10-05T07:29:21.876Z,1002.19
2022-10-05T07:34:21.813Z,1002.08
2022-10-05T07:39:23.490Z,1002.12
2022-10-05T07:44:21.693Z,1002.10
2022-10-05T07:49:21.612Z,1002.02
2022-10-05T07:54:21.552Z,1001.97
2022-10-05T07:59:21.477Z,1001.93
2022-10-05T08:04:21.421Z,1001.89
2022-10-05T08:09:21.348Z,1001.79
2022-10-05T08:14:21.288Z,1001.88
2022-10-05T08:19:21.215Z,1001.89
2022-10-05T08:24:21.158Z,1001.88
2022-10-05T08:29:21.083Z,1001.87
2022-10-05T08:34:21.027Z,1001.80
2022-10-05T08:39:20.953Z,1001.81
2022-10-05T08:44:20.894Z,1001.75
2022-10-05T08:49:20.824Z,1001.79
2022-10-05T08:54:20.765Z,1001.62
2022-10-05T08:59:20.688Z,1001.60
2022-10-05T09:04:20.630Z,1001.71
2022-10-05T09:09:20.560Z,1001.76
2022-10-05T09:14:20.503Z,1001.73
2022-10-05T09:19:20.431Z,1001.65
2022-10-05T09:24:20.370Z,1001.58
2022-10-05T09:29:20.297Z,1001.55
2022-10-05T09:34:20.245Z,1001.47
2022-10-05T09:39:20.166Z,1001.43
2022-10-05T09:44:20.109Z,1001.45
2022-10-05T09:49:20.038Z,1001.41
2022-10-05T09:54:19.982Z,1001.34
2022-10-05T09:59:19.907Z,1001.38
2022-10-05T10:04:19.851Z,1001.49
2022-10-05T10:09:19.780Z,1001.48
2022-10-05T10:14:19.723Z,1001.40
2022-10-05T10:19:19.654Z,1001.40
2022-10-05T10:24:19.595Z,1001.34
2022-10-05T10:29:19.562Z,1001.28
2022-10-05T10:34:19.464Z,1001.29
2022-10-05T10:39:19.391Z,1001.31
2022-10-05T10:44:19.335Z,1001.35
2022-10-05T10:49:19.263Z,1001.32
2022-10-05T10:54:19.208Z,1001.37
2022-10-05T10:59:19.132Z,1001.35
2022-10-05T11:04:19.074Z,1001.28
2022-10-05T11:09:19.003Z,1001.26
2022-10-05T11:14:18.945Z,1001.21
2022-10-05T11:19:18.872Z,1001.24
2022-10-05T11:24:18.816Z,1001.17
2022-10-05T11:29:18.741Z,1001.22
2022-10-05T11:34:18.687Z,1001.27
2022-10-05T11:39:18.617Z,1001.21
2022-10-05T11:44:18.563Z,1001.16
2022-10-05T11:49:18.491Z,1001.08
2022-10-05T11:54:18.430Z,1001.07
2022-10-05T11:59:18.357Z,1000.95
2022-10-05T12:04:18.300Z,1000.93
2022-10-05T12:09:18.226Z,1000.91
2022-10-05T12:14:18.168Z,1000.95
2022-10-05T12:19:18.093Z,1000.86
2022-10-05T12:24:18.034Z,1000.90
2022-10-05T12:29:17.964Z,1000.86
2022-10-05T12:34:17.905Z,1000.84
2022-10-05T12:39:17.831Z,1000.76
2022-10-05T12:44:17.774Z,1000.74
2022-10-05T12:49:17.708Z,1000.69
2022-10-05T12:54:17.650Z,1000.68
2022-10-05T12:59:17.571Z,1000.65
2022-10-05T13:04:17.533Z,1000.63
2022-10-05T13:09:17.442Z,1000.55
2022-10-05T13:14:17.385Z,1000.48
2022-10-05T13:19:17.312Z,1000.44
2022-10-05T13:24:17.255Z,1000.43
2022-10-05T13:29:17.184Z,1000.42
2022-10-05T13:34:17.127Z,1000.42
2022-10-05T13:39:17.056Z,1000.40
2022-10-05T13:44:17.000Z,1000.37
2022-10-05T13:49:16.928Z,1000.37
2022-10-05T13:54:16.868Z,1000.40
2022-10-05T13:59:16.797Z,1000.41
2022-10-05T14:04:16.740Z,1000.30
2022-10-05T14:09:16.666Z,1000.37
2022-10-05T14:14:16.613Z,1000.36
2022-10-05T14:19:16.539Z,1000.33
2022-10-05T14:24:25.871Z,1000.25
2022-10-05T14:29:17.438Z,1000.21
2022-10-05T14:34:16.455Z,1000.15
2022-10-05T14:39:16.275Z,1000.15
2022-10-05T14:44:16.221Z,1000.12
2022-10-05T14:49:16.143Z,1000.15
2022-10-05T14:54:16.092Z,1000.14
2022-10-05T14:59:16.005Z,1000.12
2022-10-05T15:04:15.945Z,1000.08
2022-10-05T15:09:17.616Z,1000.09
2022-10-05T15:14:15.810Z,1000.07
2022-10-05T15:19:15.783Z,1000.00
2022-10-05T15:24:15.682Z,999.94
2022-10-05T15:29:15.607Z,999.84
2022-10-05T15:34:15.545Z,999.83
2022-10-05T15:39:15.472Z,999.84
2022-10-05T15:44:15.411Z,999.85
2022-10-05T15:49:15.338Z,999.83
2022-10-05T15:54:15.280Z,999.83
2022-10-05T15:59:17.715Z,999.88
2022-10-05T16:04:15.155Z,999.95
2022-10-05T16:09:15.093Z,999.95
2022-10-05T16:14:15.030Z,1000.03
2022-10-05T16:19:14.961Z,999.96
2022-10-05T16:24:14.898Z,999.91
2022-10-05T16:29:14.828Z,999.91
2022-10-05T16:34:14.767Z,999.92
2022-10-05T16:39:14.698Z,999.87
2022-10-05T16:44:14.636Z,999.88
2022-10-05T16:49:14.564Z,999.99
2022-10-05T16:54:14.503Z,1000.01
2022-10-05T16:59:14.428Z,1000.08
2022-10-05T17:04:14.370Z,1000.14
2022-10-05T17:09:14.296Z,1000.13
2022-10-05T17:14:14.238Z,1000.16
2022-10-05T17:19:14.164Z,1000.14
2022-10-05T17:24:14.107Z,1000.26
2022-10-05T17:29:14.033Z,1000.30
2022-10-05T17:34:13.977Z,1000.30
2022-10-05T17:39:13.914Z,1000.26
2022-10-05T17:44:13.845Z,1000.25
2022-10-05T17:49:13.768Z,1000.29
2022-10-05T17:54:13.712Z,1000.24
2022-10-05T17:59:13.638Z,1000.24
2022-10-05T18:04:13.579Z,1000.22
2022-10-05T18:09:13.507Z,1000.28
2022-10-05T18:14:13.448Z,1000.19
2022-10-05T18:19:13.375Z,1000.28
2022-10-05T18:24:13.316Z,1000.34
2022-10-05T18:29:13.243Z,1000.45
2022-10-05T18:34:13.187Z,1000.50
2022-10-05T18:39:13.115Z,1000.53
2022-10-05T18:44:13.055Z,1000.56
2022-10-05T18:49:12.981Z,1000.59
2022-10-05T18:54:12.925Z,1000.60
2022-10-05T18:59:12.851Z,1000.62
2022-10-05T19:04:12.791Z,1000.73
2022-10-05T19:09:12.720Z,1000.73
2022-10-05T19:14:12.666Z,1000.72
2022-10-05T19:19:12.595Z,1000.76
2022-10-05T19:24:12.530Z,1000.71
2022-10-05T19:29:12.456Z,1000.84
2022-10-05T19:34:12.399Z,1000.87
2022-10-05T19:39:12.388Z,1000.90
2022-10-05T19:44:12.268Z,1000.96
2022-10-05T19:49:12.210Z,1001.01
2022-10-05T19:54:12.131Z,1000.98
2022-10-05T19:59:12.077Z,1001.01
2022-10-05T20:04:12.001Z,1001.00
2022-10-05T20:09:11.943Z,1000.99
2022-10-05T20:14:11.869Z,1001.01
2022-10-05T20:19:12.116Z,1001.08
2022-10-05T20:24:11.737Z,1001.18
2022-10-05T20:29:11.680Z,1001.22
2022-10-05T20:34:11.608Z,1001.18
2022-10-05T20:39:11.551Z,1001.19
2022-10-05T20:44:11.478Z,1001.25
2022-10-05T20:49:11.422Z,1001.23
2022-10-05T20:54:11.348Z,1001.30
2022-10-05T20:59:11.293Z,1001.35
2022-10-05T21:04:11.222Z,1001.42
2022-10-05T21:09:11.291Z,1001.44
2022-10-05T21:14:11.089Z,1001.56
2022-10-05T21:19:11.032Z,1001.61
2022-10-05T21:24:10.956Z,1001.65
2022-10-05T21:29:12.680Z,1001.65
2022-10-05T21:34:10.827Z,1001.67
2022-10-05T21:39:10.776Z,1001.67
2022-10-05T21:44:10.703Z,1001.73
2022-10-05T21:49:10.642Z,1001.75
2022-10-05T21:54:10.568Z,1001.84
2022-10-05T21:59:10.509Z,1001.84
2022-10-05T22:04:10.438Z,1001.91
2022-10-05T22:09:10.380Z,1001.94
2022-10-05T22:14:10.305Z,1002.02
2022-10-05T22:19:10.496Z,1002.08
2022-10-05T22:24:10.174Z,1002.14
2022-10-05T22:29:10.156Z,1002.24
2022-10-05T22:34:10.063Z,1002.29
2022-10-05T22:39:09.985Z,1002.25
2022-10-05T22:44:09.912Z,1002.32
2022-10-05T22:49:09.855Z,1002.38
2022-10-05T22:54:09.781Z,1002.46
2022-10-05T22:59:09.725Z,1002.46
2022-10-05T23:04:09.651Z,1002.54
2022-10-05T23:09:09.595Z,1002.50
2022-10-05T23:14:09.520Z,1002.52
2022-10-05T23:19:09.463Z,1002.61
2022-10-05T23:24:09.389Z,1002.77
2022-10-05T23:29:09.331Z,1002.78
2022-10-05T23:34:09.257Z,1002.85
2022-10-05T23:39:09.198Z,1002.85
2022-10-05T23:44:09.130Z,1002.86
2022-10-05T23:49:09.074Z,1002.95
2022-10-05T23:54:09.002Z,1002.93
2022-10-05T23:59:08.943Z,1003.07
